sensor_id;sensor_type;location;lat;lon;timestamp;P1;durP1;ratioP1;P2;durP2;ratioP2
27402;SDS011;14862;49.494;8.530;2023-07-20T00:00:33;2.73;;;2.33;;
27402;SDS011;14862;49.494;8.530;2023-07-20T00:03:13;3.20;;;2.50;;
27402;SDS011;14862;49.494;8.530;2023-07-20T00:05:42;3.50;;;2.20;;
27402;SDS011;14862;49.494;8.530;2023-07-20T00:08:07;4.18;;;2.17;;
27402;SDS011;14862;49.494;8.530;2023-07-20T00:10:32;5.00;;;2.23;;
27402;SDS011;14862;49.494;8.530;2023-07-20T00:12:58;2.50;;;1.98;;
27402;SDS011;14862;49.494;8.530;2023-07-20T00:15:23;8.60;;;2.50;;
27402;SDS011;14862;49.494;8.530;2023-07-20T00:17:49;3.50;;;2.00;;
27402;SDS011;14862;49.494;8.530;2023-07-20T00:20:14;3.53;;;1.70;;
27402;SDS011;14862;49.494;8.530;2023-07-20T00:22:39;3.92;;;2.22;;
27402;SDS011;14862;49.494;8.530;2023-07-20T00:25:04;5.97;;;2.30;;
27402;SDS011;14862;49.494;8.530;2023-07-20T00:27:30;4.35;;;1.88;;
27402;SDS011;14862;49.494;8.530;2023-07-20T00:29:55;3.27;;;1.90;;
27402;SDS011;14862;49.494;8.530;2023-07-20T00:32:20;3.67;;;2.00;;
27402;SDS011;14862;49.494;8.530;2023-07-20T00:34:45;3.87;;;2.37;;
27402;SDS011;14862;49.494;8.530;2023-07-20T00:37:10;2.73;;;1.83;;
27402;SDS011;14862;49.494;8.530;2023-07-20T00:39:36;6.63;;;2.10;;
27402;SDS011;14862;49.494;8.530;2023-07-20T00:42:01;4.30;;;2.73;;
27402;SDS011;14862;49.494;8.530;2023-07-20T00:44:26;2.17;;;1.97;;
27402;SDS011;14862;49.494;8.530;2023-07-20T00:46:51;2.63;;;2.00;;
27402;SDS011;14862;49.494;8.530;2023-07-20T00:49:16;4.03;;;2.22;;
27402;SDS011;14862;49.494;8.530;2023-07-20T00:51:46;3.83;;;2.03;;
27402;SDS011;14862;49.494;8.530;2023-07-20T00:54:11;3.42;;;1.83;;
27402;SDS011;14862;49.494;8.530;2023-07-20T00:56:36;2.58;;;1.85;;
27402;SDS011;14862;49.494;8.530;2023-07-20T00:59:02;2.25;;;1.98;;
27402;SDS011;14862;49.494;8.530;2023-07-20T01:01:27;3.90;;;2.42;;
27402;SDS011;14862;49.494;8.530;2023-07-20T01:03:52;5.30;;;2.40;;
27402;SDS011;14862;49.494;8.530;2023-07-20T01:06:24;5.50;;;1.85;;
27402;SDS011;14862;49.494;8.530;2023-07-20T01:09:13;5.07;;;1.88;;
27402;SDS011;14862;49.494;8.530;2023-07-20T01:14:08;4.70;;;1.83;;
27402;SDS011;14862;49.494;8.530;2023-07-20T01:16:34;2.42;;;1.70;;
27402;SDS011;14862;49.494;8.530;2023-07-20T01:18:59;6.47;;;2.35;;
27402;SDS011;14862;49.494;8.530;2023-07-20T01:21:26;3.90;;;2.10;;
27402;SDS011;14862;49.494;8.530;2023-07-20T01:26:46;4.18;;;2.10;;
27402;SDS011;14862;49.494;8.530;2023-07-20T01:31:46;6.38;;;2.20;;
27402;SDS011;14862;49.494;8.530;2023-07-20T01:34:12;3.60;;;1.83;;
27402;SDS011;14862;49.494;8.530;2023-07-20T01:36:42;3.35;;;2.00;;
27402;SDS011;14862;49.494;8.530;2023-07-20T01:39:08;3.13;;;2.17;;
27402;SDS011;14862;49.494;8.530;2023-07-20T01:41:33;2.40;;;1.90;;
27402;SDS011;14862;49.494;8.530;2023-07-20T01:43:58;2.88;;;2.35;;
27402;SDS011;14862;49.494;8.530;2023-07-20T01:46:27;4.55;;;2.30;;
27402;SDS011;14862;49.494;8.530;2023-07-20T01:48:52;4.78;;;1.90;;
27402;SDS011;14862;49.494;8.530;2023-07-20T01:51:18;2.28;;;1.83;;
27402;SDS011;14862;49.494;8.530;2023-07-20T01:53:43;2.53;;;2.03;;
27402;SDS011;14862;49.494;8.530;2023-07-20T01:56:08;3.43;;;2.40;;
27402;SDS011;14862;49.494;8.530;2023-07-20T01:58:34;5.30;;;2.20;;
27402;SDS011;14862;49.494;8.530;2023-07-20T02:01:00;3.33;;;2.13;;
27402;SDS011;14862;49.494;8.530;2023-07-20T02:03:26;5.07;;;2.38;;
27402;SDS011;14862;49.494;8.530;2023-07-20T02:05:51;5.03;;;2.10;;
27402;SDS011;14862;49.494;8.530;2023-07-20T02:08:17;2.67;;;2.08;;
27402;SDS011;14862;49.494;8.530;2023-07-20T02:10:45;4.90;;;2.13;;
27402;SDS011;14862;49.494;8.530;2023-07-20T02:13:10;3.92;;;1.92;;
27402;SDS011;14862;49.494;8.530;2023-07-20T02:15:35;3.28;;;2.20;;
27402;SDS011;14862;49.494;8.530;2023-07-20T02:18:00;4.23;;;2.27;;
27402;SDS011;14862;49.494;8.530;2023-07-20T02:20:26;7.20;;;2.35;;
27402;SDS011;14862;49.494;8.530;2023-07-20T02:22:52;2.97;;;2.20;;
27402;SDS011;14862;49.494;8.530;2023-07-20T02:25:17;3.20;;;1.97;;
27402;SDS011;14862;49.494;8.530;2023-07-20T02:27:42;7.68;;;3.05;;
27402;SDS011;14862;49.494;8.530;2023-07-20T02:30:08;4.20;;;2.17;;
27402;SDS011;14862;49.494;8.530;2023-07-20T02:32:34;3.53;;;2.40;;
27402;SDS011;14862;49.494;8.530;2023-07-20T02:34:59;6.30;;;2.65;;
27402;SDS011;14862;49.494;8.530;2023-07-20T02:37:25;3.35;;;1.90;;
27402;SDS011;14862;49.494;8.530;2023-07-20T02:39:50;4.63;;;2.40;;
27402;SDS011;14862;49.494;8.530;2023-07-20T02:42:15;3.78;;;2.25;;
27402;SDS011;14862;49.494;8.530;2023-07-20T02:44:40;4.27;;;2.53;;
27402;SDS011;14862;49.494;8.530;2023-07-20T02:47:05;2.97;;;2.10;;
27402;SDS011;14862;49.494;8.530;2023-07-20T02:49:31;4.90;;;2.28;;
27402;SDS011;14862;49.494;8.530;2023-07-20T02:51:56;2.93;;;2.10;;
27402;SDS011;14862;49.494;8.530;2023-07-20T02:54:21;5.20;;;2.60;;
27402;SDS011;14862;49.494;8.530;2023-07-20T02:56:46;2.75;;;2.08;;
27402;SDS011;14862;49.494;8.530;2023-07-20T02:59:12;4.00;;;2.13;;
27402;SDS011;14862;49.494;8.530;2023-07-20T03:01:37;3.20;;;2.20;;
27402;SDS011;14862;49.494;8.530;2023-07-20T03:04:02;7.00;;;2.33;;
27402;SDS011;14862;49.494;8.530;2023-07-20T03:06:29;2.60;;;2.08;;
27402;SDS011;14862;49.494;8.530;2023-07-20T03:08:54;4.20;;;2.00;;
27402;SDS011;14862;49.494;8.530;2023-07-20T03:11:19;2.97;;;2.57;;
27402;SDS011;14862;49.494;8.530;2023-07-20T03:13:45;2.95;;;2.08;;
27402;SDS011;14862;49.494;8.530;2023-07-20T03:16:11;4.22;;;2.22;;
27402;SDS011;14862;49.494;8.530;2023-07-20T03:18:37;5.25;;;2.92;;
27402;SDS011;14862;49.494;8.530;2023-07-20T03:21:03;4.95;;;2.40;;
27402;SDS011;14862;49.494;8.530;2023-07-20T03:23:28;6.05;;;2.90;;
27402;SDS011;14862;49.494;8.530;2023-07-20T03:25:53;5.67;;;2.57;;
27402;SDS011;14862;49.494;8.530;2023-07-20T03:28:20;6.10;;;2.88;;
27402;SDS011;14862;49.494;8.530;2023-07-20T03:30:45;4.60;;;2.57;;
27402;SDS011;14862;49.494;8.530;2023-07-20T03:33:10;4.97;;;2.72;;
27402;SDS011;14862;49.494;8.530;2023-07-20T03:35:35;4.75;;;2.90;;
27402;SDS011;14862;49.494;8.530;2023-07-20T03:38:01;4.85;;;2.58;;
27402;SDS011;14862;49.494;8.530;2023-07-20T03:40:26;5.22;;;2.50;;
27402;SDS011;14862;49.494;8.530;2023-07-20T03:42:51;4.23;;;2.40;;
27402;SDS011;14862;49.494;8.530;2023-07-20T03:45:16;4.75;;;2.70;;
27402;SDS011;14862;49.494;8.530;2023-07-20T03:47:42;3.83;;;2.35;;
27402;SDS011;14862;49.494;8.530;2023-07-20T03:50:07;4.15;;;2.63;;
27402;SDS011;14862;49.494;8.530;2023-07-20T03:52:34;4.03;;;2.45;;
27402;SDS011;14862;49.494;8.530;2023-07-20T03:55:00;4.93;;;2.40;;
27402;SDS011;14862;49.494;8.530;2023-07-20T03:57:25;2.90;;;2.30;;
27402;SDS011;14862;49.494;8.530;2023-07-20T03:59:50;3.47;;;2.30;;
27402;SDS011;14862;49.494;8.530;2023-07-20T04:02:15;7.43;;;3.07;;
27402;SDS011;14862;49.494;8.530;2023-07-20T04:04:40;4.10;;;2.20;;
27402;SDS011;14862;49.494;8.530;2023-07-20T04:07:06;3.80;;;2.72;;
27402;SDS011;14862;49.494;8.530;2023-07-20T04:09:32;3.13;;;2.30;;
27402;SDS011;14862;49.494;8.530;2023-07-20T04:11:57;5.67;;;1.93;;
27402;SDS011;14862;49.494;8.530;2023-07-20T04:14:22;3.87;;;2.40;;
27402;SDS011;14862;49.494;8.530;2023-07-20T04:16:48;4.23;;;2.33;;
27402;SDS011;14862;49.494;8.530;2023-07-20T04:19:13;3.57;;;2.17;;
27402;SDS011;14862;49.494;8.530;2023-07-20T04:21:41;3.87;;;2.37;;
27402;SDS011;14862;49.494;8.530;2023-07-20T04:24:06;5.45;;;2.53;;
27402;SDS011;14862;49.494;8.530;2023-07-20T04:26:31;5.33;;;2.47;;
27402;SDS011;14862;49.494;8.530;2023-07-20T04:28:56;3.93;;;2.37;;
27402;SDS011;14862;49.494;8.530;2023-07-20T04:31:24;4.72;;;2.47;;
27402;SDS011;14862;49.494;8.530;2023-07-20T04:33:49;4.57;;;2.00;;
27402;SDS011;14862;49.494;8.530;2023-07-20T04:36:14;4.20;;;2.20;;
27402;SDS011;14862;49.494;8.530;2023-07-20T04:38:44;2.60;;;1.85;;
27402;SDS011;14862;49.494;8.530;2023-07-20T04:41:11;2.10;;;1.55;;
27402;SDS011;14862;49.494;8.530;2023-07-20T04:43:40;3.28;;;1.92;;
27402;SDS011;14862;49.494;8.530;2023-07-20T04:46:05;3.03;;;2.00;;
27402;SDS011;14862;49.494;8.530;2023-07-20T04:48:31;4.38;;;2.00;;
27402;SDS011;14862;49.494;8.530;2023-07-20T04:50:56;5.73;;;2.20;;
27402;SDS011;14862;49.494;8.530;2023-07-20T04:53:21;4.13;;;2.13;;
27402;SDS011;14862;49.494;8.530;2023-07-20T04:55:47;3.28;;;1.70;;
27402;SDS011;14862;49.494;8.530;2023-07-20T04:58:15;5.63;;;2.40;;
27402;SDS011;14862;49.494;8.530;2023-07-20T05:00:40;5.22;;;2.28;;
27402;SDS011;14862;49.494;8.530;2023-07-20T05:03:06;3.58;;;2.50;;
27402;SDS011;14862;49.494;8.530;2023-07-20T05:05:31;3.83;;;2.17;;
27402;SDS011;14862;49.494;8.530;2023-07-20T05:07:57;4.32;;;2.05;;
27402;SDS011;14862;49.494;8.530;2023-07-20T05:10:22;5.80;;;2.38;;
27402;SDS011;14862;49.494;8.530;2023-07-20T05:12:48;3.88;;;2.35;;
27402;SDS011;14862;49.494;8.530;2023-07-20T05:15:13;5.97;;;2.42;;
27402;SDS011;14862;49.494;8.530;2023-07-20T05:17:38;4.40;;;2.23;;
27402;SDS011;14862;49.494;8.530;2023-07-20T05:20:04;5.30;;;2.35;;
27402;SDS011;14862;49.494;8.530;2023-07-20T05:22:30;6.50;;;2.30;;
27402;SDS011;14862;49.494;8.530;2023-07-20T05:24:55;4.53;;;2.53;;
27402;SDS011;14862;49.494;8.530;2023-07-20T05:27:20;5.23;;;2.47;;
27402;SDS011;14862;49.494;8.530;2023-07-20T05:29:46;3.35;;;2.38;;
27402;SDS011;14862;49.494;8.530;2023-07-20T05:32:12;5.83;;;2.50;;
27402;SDS011;14862;49.494;8.530;2023-07-20T05:34:37;3.78;;;2.70;;
27402;SDS011;14862;49.494;8.530;2023-07-20T05:37:02;6.80;;;2.73;;
27402;SDS011;14862;49.494;8.530;2023-07-20T05:39:27;3.85;;;2.65;;
27402;SDS011;14862;49.494;8.530;2023-07-20T05:41:52;3.63;;;2.40;;
27402;SDS011;14862;49.494;8.530;2023-07-20T05:44:18;6.10;;;2.83;;
27402;SDS011;14862;49.494;8.530;2023-07-20T05:46:43;5.67;;;3.47;;
27402;SDS011;14862;49.494;8.530;2023-07-20T05:49:08;3.40;;;2.53;;
27402;SDS011;14862;49.494;8.530;2023-07-20T05:51:33;3.27;;;2.60;;
27402;SDS011;14862;49.494;8.530;2023-07-20T05:53:59;5.03;;;3.10;;
27402;SDS011;14862;49.494;8.530;2023-07-20T05:56:24;4.85;;;2.70;;
27402;SDS011;14862;49.494;8.530;2023-07-20T05:58:49;5.93;;;3.10;;
27402;SDS011;14862;49.494;8.530;2023-07-20T06:01:15;6.13;;;3.10;;
27402;SDS011;14862;49.494;8.530;2023-07-20T06:03:40;5.00;;;2.73;;
27402;SDS011;14862;49.494;8.530;2023-07-20T06:06:05;3.57;;;2.97;;
27402;SDS011;14862;49.494;8.530;2023-07-20T06:08:31;2.85;;;2.50;;
27402;SDS011;14862;49.494;8.530;2023-07-20T06:10:56;4.87;;;2.83;;
27402;SDS011;14862;49.494;8.530;2023-07-20T06:13:22;4.55;;;2.92;;
27402;SDS011;14862;49.494;8.530;2023-07-20T06:15:47;3.42;;;2.28;;
27402;SDS011;14862;49.494;8.530;2023-07-20T06:18:13;7.03;;;2.22;;
27402;SDS011;14862;49.494;8.530;2023-07-20T06:20:38;4.00;;;2.22;;
27402;SDS011;14862;49.494;8.530;2023-07-20T06:23:03;3.73;;;2.10;;
27402;SDS011;14862;49.494;8.530;2023-07-20T06:25:28;6.63;;;2.23;;
27402;SDS011;14862;49.494;8.530;2023-07-20T06:27:54;4.70;;;2.00;;
27402;SDS011;14862;49.494;8.530;2023-07-20T06:30:20;4.00;;;1.85;;
27402;SDS011;14862;49.494;8.530;2023-07-20T06:32:45;7.83;;;3.27;;
27402;SDS011;14862;49.494;8.530;2023-07-20T06:35:10;2.25;;;1.80;;
27402;SDS011;14862;49.494;8.530;2023-07-20T06:37:35;5.17;;;2.23;;
27402;SDS011;14862;49.494;8.530;2023-07-20T06:40:04;3.97;;;2.35;;
27402;SDS011;14862;49.494;8.530;2023-07-20T06:42:29;4.25;;;1.90;;
27402;SDS011;14862;49.494;8.530;2023-07-20T06:44:56;4.00;;;2.20;;
27402;SDS011;14862;49.494;8.530;2023-07-20T06:47:21;5.15;;;2.13;;
27402;SDS011;14862;49.494;8.530;2023-07-20T06:49:46;3.55;;;2.13;;
27402;SDS011;14862;49.494;8.530;2023-07-20T06:52:12;2.53;;;1.83;;
27402;SDS011;14862;49.494;8.530;2023-07-20T06:54:37;3.20;;;2.10;;
27402;SDS011;14862;49.494;8.530;2023-07-20T06:57:02;7.27;;;2.33;;
27402;SDS011;14862;49.494;8.530;2023-07-20T06:59:27;3.13;;;2.00;;
27402;SDS011;14862;49.494;8.530;2023-07-20T07:01:53;1.90;;;1.40;;
27402;SDS011;14862;49.494;8.530;2023-07-20T07:04:18;2.03;;;1.70;;
27402;SDS011;14862;49.494;8.530;2023-07-20T07:06:43;1.60;;;1.27;;
27402;SDS011;14862;49.494;8.530;2023-07-20T07:09:09;4.07;;;1.40;;
27402;SDS011;14862;49.494;8.530;2023-07-20T07:11:34;2.90;;;1.67;;
27402;SDS011;14862;49.494;8.530;2023-07-20T07:13:59;3.47;;;1.70;;
27402;SDS011;14862;49.494;8.530;2023-07-20T07:16:25;4.03;;;1.70;;
27402;SDS011;14862;49.494;8.530;2023-07-20T07:18:50;4.37;;;1.50;;
27402;SDS011;14862;49.494;8.530;2023-07-20T07:21:15;4.60;;;1.45;;
27402;SDS011;14862;49.494;8.530;2023-07-20T07:23:40;4.10;;;1.60;;
27402;SDS011;14862;49.494;8.530;2023-07-20T07:26:06;3.90;;;1.50;;
27402;SDS011;14862;49.494;8.530;2023-07-20T07:28:31;4.43;;;1.80;;
27402;SDS011;14862;49.494;8.530;2023-07-20T07:30:57;5.38;;;1.48;;
27402;SDS011;14862;49.494;8.530;2023-07-20T07:33:22;2.30;;;1.43;;
27402;SDS011;14862;49.494;8.530;2023-07-20T07:35:47;4.05;;;1.88;;
27402;SDS011;14862;49.494;8.530;2023-07-20T07:38:12;1.40;;;1.30;;
27402;SDS011;14862;49.494;8.530;2023-07-20T07:40:37;2.97;;;1.60;;
27402;SDS011;14862;49.494;8.530;2023-07-20T07:43:03;3.13;;;1.67;;
27402;SDS011;14862;49.494;8.530;2023-07-20T07:45:28;1.65;;;1.08;;
27402;SDS011;14862;49.494;8.530;2023-07-20T07:47:53;1.58;;;1.42;;
27402;SDS011;14862;49.494;8.530;2023-07-20T07:50:18;2.67;;;1.60;;
27402;SDS011;14862;49.494;8.530;2023-07-20T07:52:44;1.57;;;1.37;;
27402;SDS011;14862;49.494;8.530;2023-07-20T07:55:09;2.30;;;1.57;;
27402;SDS011;14862;49.494;8.530;2023-07-20T07:57:34;7.17;;;2.03;;
27402;SDS011;14862;49.494;8.530;2023-07-20T07:59:59;5.18;;;1.80;;
27402;SDS011;14862;49.494;8.530;2023-07-20T08:02:25;3.47;;;1.83;;
27402;SDS011;14862;49.494;8.530;2023-07-20T08:04:50;3.20;;;1.77;;
27402;SDS011;14862;49.494;8.530;2023-07-20T08:07:17;5.28;;;2.08;;
27402;SDS011;14862;49.494;8.530;2023-07-20T08:09:42;3.80;;;2.00;;
27402;SDS011;14862;49.494;8.530;2023-07-20T08:12:08;1.95;;;1.45;;
27402;SDS011;14862;49.494;8.530;2023-07-20T08:14:33;4.80;;;1.98;;
27402;SDS011;14862;49.494;8.530;2023-07-20T08:16:58;3.67;;;1.80;;
27402;SDS011;14862;49.494;8.530;2023-07-20T08:19:24;4.13;;;1.30;;
27402;SDS011;14862;49.494;8.530;2023-07-20T08:21:49;4.60;;;1.63;;
27402;SDS011;14862;49.494;8.530;2023-07-20T08:24:14;3.87;;;1.43;;
27402;SDS011;14862;49.494;8.530;2023-07-20T08:26:39;1.97;;;1.50;;
27402;SDS011;14862;49.494;8.530;2023-07-20T08:29:04;2.23;;;1.50;;
27402;SDS011;14862;49.494;8.530;2023-07-20T08:31:30;2.53;;;1.60;;
27402;SDS011;14862;49.494;8.530;2023-07-20T08:33:55;4.00;;;1.43;;
27402;SDS011;14862;49.494;8.530;2023-07-20T08:36:21;3.40;;;1.77;;
27402;SDS011;14862;49.494;8.530;2023-07-20T08:38:47;3.63;;;1.30;;
27402;SDS011;14862;49.494;8.530;2023-07-20T08:41:12;2.95;;;1.20;;
27402;SDS011;14862;49.494;8.530;2023-07-20T08:43:38;2.17;;;1.60;;
27402;SDS011;14862;49.494;8.530;2023-07-20T08:46:07;3.25;;;1.75;;
27402;SDS011;14862;49.494;8.530;2023-07-20T08:48:32;3.72;;;1.92;;
27402;SDS011;14862;49.494;8.530;2023-07-20T08:50:58;3.33;;;1.75;;
27402;SDS011;14862;49.494;8.530;2023-07-20T08:53:25;3.03;;;1.50;;
27402;SDS011;14862;49.494;8.530;2023-07-20T08:55:50;3.08;;;1.60;;
27402;SDS011;14862;49.494;8.530;2023-07-20T08:58:17;2.05;;;1.60;;
27402;SDS011;14862;49.494;8.530;2023-07-20T09:00:42;3.65;;;1.98;;
27402;SDS011;14862;49.494;8.530;2023-07-20T09:03:08;2.08;;;1.70;;
27402;SDS011;14862;49.494;8.530;2023-07-20T09:05:33;1.75;;;1.60;;
27402;SDS011;14862;49.494;8.530;2023-07-20T09:08:00;3.80;;;1.98;;
27402;SDS011;14862;49.494;8.530;2023-07-20T09:10:25;4.03;;;1.30;;
27402;SDS011;14862;49.494;8.530;2023-07-20T09:12:50;2.93;;;1.80;;
27402;SDS011;14862;49.494;8.530;2023-07-20T09:15:15;2.87;;;1.77;;
27402;SDS011;14862;49.494;8.530;2023-07-20T09:17:45;3.88;;;1.70;;
27402;SDS011;14862;49.494;8.530;2023-07-20T09:20:10;3.05;;;1.60;;
27402;SDS011;14862;49.494;8.530;2023-07-20T09:22:36;3.40;;;1.37;;
27402;SDS011;14862;49.494;8.530;2023-07-20T09:25:05;3.65;;;1.55;;
27402;SDS011;14862;49.494;8.530;2023-07-20T09:27:44;2.88;;;1.60;;
27402;SDS011;14862;49.494;8.530;2023-07-20T09:30:09;1.33;;;1.23;;
27402;SDS011;14862;49.494;8.530;2023-07-20T09:32:38;2.05;;;1.67;;
27402;SDS011;14862;49.494;8.530;2023-07-20T09:35:04;2.50;;;1.77;;
27402;SDS011;14862;49.494;8.530;2023-07-20T09:37:30;2.53;;;1.83;;
27402;SDS011;14862;49.494;8.530;2023-07-20T09:39:57;1.95;;;1.80;;
27402;SDS011;14862;49.494;8.530;2023-07-20T09:42:23;7.20;;;2.97;;
27402;SDS011;14862;49.494;8.530;2023-07-20T09:44:50;4.13;;;2.00;;
27402;SDS011;14862;49.494;8.530;2023-07-20T09:47:21;2.42;;;1.90;;
27402;SDS011;14862;49.494;8.530;2023-07-20T09:49:46;2.65;;;2.00;;
27402;SDS011;14862;49.494;8.530;2023-07-20T09:52:11;3.77;;;1.97;;
27402;SDS011;14862;49.494;8.530;2023-07-20T09:54:38;2.42;;;1.42;;
27402;SDS011;14862;49.494;8.530;2023-07-20T09:57:03;5.47;;;1.90;;
27402;SDS011;14862;49.494;8.530;2023-07-20T09:59:29;4.13;;;1.73;;
27402;SDS011;14862;49.494;8.530;2023-07-20T10:01:55;2.90;;;1.67;;
27402;SDS011;14862;49.494;8.530;2023-07-20T10:04:22;4.30;;;1.90;;
27402;SDS011;14862;49.494;8.530;2023-07-20T10:06:48;2.80;;;1.98;;
27402;SDS011;14862;49.494;8.530;2023-07-20T10:09:14;3.38;;;1.55;;
27402;SDS011;14862;49.494;8.530;2023-07-20T10:11:40;3.58;;;1.60;;
27402;SDS011;14862;49.494;8.530;2023-07-20T10:14:07;5.80;;;1.98;;
27402;SDS011;14862;49.494;8.530;2023-07-20T10:16:36;5.60;;;1.80;;
27402;SDS011;14862;49.494;8.530;2023-07-20T10:19:07;3.15;;;1.50;;
27402;SDS011;14862;49.494;8.530;2023-07-20T10:21:33;3.45;;;2.03;;
27402;SDS011;14862;49.494;8.530;2023-07-20T10:24:00;6.05;;;1.83;;
27402;SDS011;14862;49.494;8.530;2023-07-20T10:26:26;3.03;;;1.98;;
27402;SDS011;14862;49.494;8.530;2023-07-20T10:28:51;3.13;;;1.83;;
27402;SDS011;14862;49.494;8.530;2023-07-20T10:31:17;5.55;;;1.98;;
27402;SDS011;14862;49.494;8.530;2023-07-20T10:33:42;2.28;;;1.63;;
27402;SDS011;14862;49.494;8.530;2023-07-20T10:36:08;3.65;;;1.98;;
27402;SDS011;14862;49.494;8.530;2023-07-20T10:38:42;5.77;;;2.20;;
27402;SDS011;14862;49.494;8.530;2023-07-20T10:41:20;5.97;;;1.80;;
27402;SDS011;14862;49.494;8.530;2023-07-20T10:43:46;3.92;;;1.77;;
27402;SDS011;14862;49.494;8.530;2023-07-20T10:46:11;3.63;;;1.80;;
27402;SDS011;14862;49.494;8.530;2023-07-20T10:48:58;2.42;;;1.60;;
27402;SDS011;14862;49.494;8.530;2023-07-20T10:51:22;4.50;;;1.80;;
27402;SDS011;14862;49.494;8.530;2023-07-20T10:53:48;3.45;;;1.80;;
27402;SDS011;14862;49.494;8.530;2023-07-20T10:56:15;3.80;;;1.90;;
27402;SDS011;14862;49.494;8.530;2023-07-20T10:58:40;1.98;;;1.48;;
27402;SDS011;14862;49.494;8.530;2023-07-20T11:01:06;1.75;;;1.30;;
27402;SDS011;14862;49.494;8.530;2023-07-20T11:03:32;2.55;;;1.50;;
27402;SDS011;14862;49.494;8.530;2023-07-20T11:05:58;3.15;;;1.70;;
27402;SDS011;14862;49.494;8.530;2023-07-20T11:08:42;4.18;;;1.60;;
27402;SDS011;14862;49.494;8.530;2023-07-20T11:11:24;3.30;;;1.77;;
27402;SDS011;14862;49.494;8.530;2023-07-20T11:13:53;2.72;;;1.92;;
27402;SDS011;14862;49.494;8.530;2023-07-20T11:16:19;3.17;;;1.42;;
27402;SDS011;14862;49.494;8.530;2023-07-20T11:18:56;3.42;;;2.10;;
27402;SDS011;14862;49.494;8.530;2023-07-20T11:21:22;1.58;;;1.35;;
27402;SDS011;14862;49.494;8.530;2023-07-20T11:23:47;2.10;;;1.60;;
27402;SDS011;14862;49.494;8.530;2023-07-20T11:26:13;2.35;;;1.65;;
27402;SDS011;14862;49.494;8.530;2023-07-20T11:28:38;2.80;;;1.20;;
27402;SDS011;14862;49.494;8.530;2023-07-20T11:31:03;1.67;;;1.27;;
27402;SDS011;14862;49.494;8.530;2023-07-20T11:33:29;4.10;;;1.50;;
27402;SDS011;14862;49.494;8.530;2023-07-20T11:35:54;1.40;;;1.30;;
27402;SDS011;14862;49.494;8.530;2023-07-20T11:38:19;1.58;;;1.20;;
27402;SDS011;14862;49.494;8.530;2023-07-20T11:40:45;2.83;;;1.13;;
27402;SDS011;14862;49.494;8.530;2023-07-20T11:43:10;4.43;;;1.55;;
27402;SDS011;14862;49.494;8.530;2023-07-20T11:45:37;2.92;;;1.50;;
27402;SDS011;14862;49.494;8.530;2023-07-20T11:48:02;3.72;;;1.35;;
27402;SDS011;14862;49.494;8.530;2023-07-20T11:50:27;1.40;;;1.30;;
27402;SDS011;14862;49.494;8.530;2023-07-20T11:52:52;1.37;;;1.23;;
27402;SDS011;14862;49.494;8.530;2023-07-20T11:55:18;2.50;;;1.23;;
27402;SDS011;14862;49.494;8.530;2023-07-20T11:58:00;1.52;;;1.10;;
27402;SDS011;14862;49.494;8.530;2023-07-20T12:00:25;1.40;;;1.30;;
27402;SDS011;14862;49.494;8.530;2023-07-20T12:02:50;2.43;;;1.50;;
27402;SDS011;14862;49.494;8.530;2023-07-20T12:05:18;2.67;;;1.30;;
27402;SDS011;14862;49.494;8.530;2023-07-20T12:07:44;2.72;;;1.17;;
27402;SDS011;14862;49.494;8.530;2023-07-20T12:10:12;2.15;;;1.58;;
27402;SDS011;14862;49.494;8.530;2023-07-20T12:12:38;3.42;;;1.38;;
27402;SDS011;14862;49.494;8.530;2023-07-20T12:15:16;3.15;;;1.40;;
27402;SDS011;14862;49.494;8.530;2023-07-20T12:17:45;2.45;;;1.15;;
27402;SDS011;14862;49.494;8.530;2023-07-20T12:20:11;2.15;;;1.80;;
27402;SDS011;14862;49.494;8.530;2023-07-20T12:22:39;1.45;;;1.35;;
27402;SDS011;14862;49.494;8.530;2023-07-20T12:25:06;1.30;;;1.20;;
27402;SDS011;14862;49.494;8.530;2023-07-20T12:27:31;2.20;;;1.33;;
27402;SDS011;14862;49.494;8.530;2023-07-20T12:29:56;1.85;;;1.40;;
27402;SDS011;14862;49.494;8.530;2023-07-20T12:32:22;2.80;;;1.45;;
27402;SDS011;14862;49.494;8.530;2023-07-20T12:34:47;1.90;;;1.60;;
27402;SDS011;14862;49.494;8.530;2023-07-20T12:37:13;4.23;;;1.40;;
27402;SDS011;14862;49.494;8.530;2023-07-20T12:39:38;1.20;;;1.10;;
27402;SDS011;14862;49.494;8.530;2023-07-20T12:42:04;1.98;;;1.30;;
27402;SDS011;14862;49.494;8.530;2023-07-20T12:44:29;1.20;;;1.10;;
27402;SDS011;14862;49.494;8.530;2023-07-20T12:46:55;4.43;;;1.27;;
27402;SDS011;14862;49.494;8.530;2023-07-20T12:49:20;3.80;;;1.73;;
27402;SDS011;14862;49.494;8.530;2023-07-20T12:51:45;1.80;;;1.17;;
27402;SDS011;14862;49.494;8.530;2023-07-20T12:54:10;2.83;;;1.80;;
27402;SDS011;14862;49.494;8.530;2023-07-20T12:56:36;3.33;;;1.50;;
27402;SDS011;14862;49.494;8.530;2023-07-20T12:59:01;1.58;;;1.45;;
27402;SDS011;14862;49.494;8.530;2023-07-20T13:01:28;1.50;;;1.40;;
27402;SDS011;14862;49.494;8.530;2023-07-20T13:03:53;3.03;;;1.30;;
27402;SDS011;14862;49.494;8.530;2023-07-20T13:06:19;2.03;;;1.40;;
27402;SDS011;14862;49.494;8.530;2023-07-20T13:08:44;1.52;;;1.42;;
27402;SDS011;14862;49.494;8.530;2023-07-20T13:11:10;2.73;;;1.37;;
27402;SDS011;14862;49.494;8.530;2023-07-20T13:13:35;1.63;;;1.50;;
27402;SDS011;14862;49.494;8.530;2023-07-20T13:16:00;2.37;;;1.63;;
27402;SDS011;14862;49.494;8.530;2023-07-20T13:18:25;1.50;;;1.40;;
27402;SDS011;14862;49.494;8.530;2023-07-20T13:20:50;2.13;;;1.50;;
27402;SDS011;14862;49.494;8.530;2023-07-20T13:23:16;4.37;;;1.77;;
27402;SDS011;14862;49.494;8.530;2023-07-20T13:25:41;2.47;;;1.57;;
27402;SDS011;14862;49.494;8.530;2023-07-20T13:28:07;3.55;;;1.45;;
27402;SDS011;14862;49.494;8.530;2023-07-20T13:30:32;2.33;;;1.60;;
27402;SDS011;14862;49.494;8.530;2023-07-20T13:32:58;2.28;;;1.42;;
27402;SDS011;14862;49.494;8.530;2023-07-20T13:35:23;2.23;;;1.40;;
27402;SDS011;14862;49.494;8.530;2023-07-20T13:37:48;3.07;;;1.63;;
27402;SDS011;14862;49.494;8.530;2023-07-20T13:40:15;2.67;;;1.88;;
27402;SDS011;14862;49.494;8.530;2023-07-20T13:42:41;1.75;;;1.45;;
27402;SDS011;14862;49.494;8.530;2023-07-20T13:45:07;1.50;;;1.40;;
27402;SDS011;14862;49.494;8.530;2023-07-20T13:47:32;3.97;;;1.65;;
27402;SDS011;14862;49.494;8.530;2023-07-20T13:49:57;1.92;;;1.58;;
27402;SDS011;14862;49.494;8.530;2023-07-20T13:52:23;1.40;;;1.30;;
27402;SDS011;14862;49.494;8.530;2023-07-20T13:54:48;3.33;;;1.40;;
27402;SDS011;14862;49.494;8.530;2023-07-20T13:57:14;1.65;;;1.42;;
27402;SDS011;14862;49.494;8.530;2023-07-20T13:59:39;2.35;;;1.50;;
27402;SDS011;14862;49.494;8.530;2023-07-20T14:02:05;2.97;;;1.60;;
27402;SDS011;14862;49.494;8.530;2023-07-20T14:04:30;1.83;;;1.50;;
27402;SDS011;14862;49.494;8.530;2023-07-20T14:06:55;2.47;;;1.37;;
27402;SDS011;14862;49.494;8.530;2023-07-20T14:09:21;3.77;;;1.70;;
27402;SDS011;14862;49.494;8.530;2023-07-20T14:11:46;1.95;;;1.40;;
27402;SDS011;14862;49.494;8.530;2023-07-20T14:14:11;2.30;;;1.30;;
27402;SDS011;14862;49.494;8.530;2023-07-20T14:16:36;3.40;;;1.47;;
27402;SDS011;14862;49.494;8.530;2023-07-20T14:19:02;5.00;;;1.63;;
27402;SDS011;14862;49.494;8.530;2023-07-20T14:21:27;4.10;;;1.30;;
27402;SDS011;14862;49.494;8.530;2023-07-20T14:23:53;1.40;;;1.20;;
27402;SDS011;14862;49.494;8.530;2023-07-20T14:26:19;2.03;;;1.50;;
27402;SDS011;14862;49.494;8.530;2023-07-20T14:28:44;2.35;;;1.70;;
27402;SDS011;14862;49.494;8.530;2023-07-20T14:31:09;1.30;;;1.20;;
27402;SDS011;14862;49.494;8.530;2023-07-20T14:33:34;5.20;;;1.40;;
27402;SDS011;14862;49.494;8.530;2023-07-20T14:36:00;2.20;;;1.55;;
27402;SDS011;14862;49.494;8.530;2023-07-20T14:38:31;2.35;;;1.27;;
27402;SDS011;14862;49.494;8.530;2023-07-20T14:40:56;3.75;;;1.45;;
27402;SDS011;14862;49.494;8.530;2023-07-20T14:43:22;3.72;;;1.40;;
27402;SDS011;14862;49.494;8.530;2023-07-20T14:45:47;2.23;;;1.40;;
27402;SDS011;14862;49.494;8.530;2023-07-20T14:48:12;2.17;;;1.50;;